Time;durP1;ratioP1;P1;durP2;ratioP2;P2;SDS_P1;SDS_P2;PMS_P1;PMS_P2;Temp;Humidity;BMP_temperature;BMP_pressure;BME280_temperature;BME280_humidity;BME280_pressure;Samples;Min_cycle;Max_cycle;Signal;HPM_P1;HPM_P2
2022/05/13 00:00:10;;;;;;;;;;;18.20;99.90;;;;;;5113887;28;19912;-74
2022/05/13 00:02:36;;;;;;;;;;;18.30;99.90;;;;;;5113741;28;19923;-75
2022/05/13 00:05:04;;;;;;;;;;;18.30;99.90;;;;;;5113796;28;20358;-75
2022/05/13 00:07:31;;;;;;;;;;;18.40;99.90;;;;;;5113551;28;19914;-76
2022/05/13 00:09:59;;;;;;;;;;;18.30;99.90;;;;;;5113811;28;20002;-76
2022/05/13 00:12:26;;;;;;;;;;;18.30;99.90;;;;;;5113586;28;19912;-76
2022/05/13 00:14:53;;;;;;;;;;;18.30;99.90;;;;;;5113766;28;20359;-76
2022/05/13 00:17:21;;;;;;;;;;;18.30;99.90;;;;;;5113665;28;20384;-75
2022/05/13 00:19:48;;;;;;;;;;;18.30;99.90;;;;;;5113444;28;19908;-74
2022/05/13 00:22:15;;;;;;;;;;;18.30;99.90;;;;;;5114391;28;20378;-74
2022/05/13 00:24:42;;;;;;;;;;;18.40;99.90;;;;;;5117903;28;19926;-73
2022/05/13 00:27:08;;;;;;;;;;;18.30;99.90;;;;;;5117693;28;19915;-76
2022/05/13 00:29:35;;;;;;;;;;;18.30;99.90;;;;;;5117617;28;19996;-73
2022/05/13 00:32:02;;;;;;;;;;;18.30;99.90;;;;;;5117733;28;19908;-74
2022/05/13 00:34:28;;;;;;;;;;;18.40;99.90;;;;;;5117653;28;19961;-74
2022/05/13 00:36:55;;;;;;;;;;;18.40;99.90;;;;;;5117694;28;20360;-76
2022/05/13 00:39:22;;;;;;;;;;;18.50;99.90;;;;;;5117496;28;20049;-76
2022/05/13 00:41:48;;;;;;;;;;;18.40;99.90;;;;;;5117064;28;19915;-75
2022/05/13 00:44:15;;;;;;;;;;;18.40;99.90;;;;;;5117537;28;20418;-74
2022/05/13 00:46:42;;;;;;;;;;;18.40;99.90;;;;;;5117480;28;19915;-75
2022/05/13 00:49:11;;;;;;;;;;;18.40;99.90;;;;;;5117224;28;19908;-74
2022/05/13 00:51:41;;;;;;;;;;;18.40;99.90;;;;;;5117095;28;19916;-76
2022/05/13 00:54:11;;;;;;;;;;;18.30;99.90;;;;;;5117345;28;20315;-76
2022/05/13 00:56:42;;;;;;;;;;;18.40;99.90;;;;;;5117071;28;20010;-75
2022/05/13 00:59:11;;;;;;;;;;;18.40;99.90;;;;;;5117305;28;19908;-76
2022/05/13 01:01:37;;;;;;;;;;;18.50;99.90;;;;;;5116942;28;19916;-76
2022/05/13 01:04:07;;;;;;;;;;;18.50;99.90;;;;;;5117255;28;19915;-76
2022/05/13 01:06:34;;;;;;;;;;;18.40;99.90;;;;;;5117139;28;19975;-74
2022/05/13 01:09:01;;;;;;;;;;;18.50;99.90;;;;;;5117061;28;19907;-74
2022/05/13 01:11:30;;;;;;;;;;;18.50;99.90;;;;;;5116942;28;20346;-76
2022/05/13 01:13:59;;;;;;;;;;;18.50;99.90;;;;;;5117058;28;19954;-77
2022/05/13 01:16:26;;;;;;;;;;;18.40;99.90;;;;;;5116836;28;19915;-75
2022/05/13 01:18:53;;;;;;;;;;;18.50;99.90;;;;;;5116763;28;19915;-73
2022/05/13 01:21:21;;;;;;;;;;;18.50;99.90;;;;;;5116689;28;19907;-76
2022/05/13 01:23:50;;;;;;;;;;;18.50;99.90;;;;;;5116581;28;19911;-74
2022/05/13 01:26:30;;;;;;;;;;;18.50;99.90;;;;;;5116704;28;19908;-76
2022/05/13 01:28:57;;;;;;;;;;;18.50;99.90;;;;;;5116585;28;19996;-76
2022/05/13 01:31:25;;;;;;;;;;;18.50;99.90;;;;;;5116666;28;19908;-77
2022/05/13 01:33:52;;;;;;;;;;;18.50;99.90;;;;;;5115104;28;19908;-75
2022/05/13 01:36:21;;;;;;;;;;;18.50;99.90;;;;;;5116562;28;19908;-76
2022/05/13 01:38:48;;;;;;;;;;;18.50;99.90;;;;;;5116463;28;19908;-77
2022/05/13 01:41:16;;;;;;;;;;;18.50;99.90;;;;;;5116158;28;19912;-77
2022/05/13 01:43:43;;;;;;;;;;;18.60;99.90;;;;;;5115969;28;20002;-77
2022/05/13 01:46:10;;;;;;;;;;;18.60;99.90;;;;;;5116314;28;19957;-75
2022/05/13 01:48:37;;;;;;;;;;;18.70;99.90;;;;;;5116321;28;20008;-74
2022/05/13 01:51:04;;;;;;;;;;;18.70;99.90;;;;;;5116012;28;19920;-74
2022/05/13 01:53:31;;;;;;;;;;;18.70;99.90;;;;;;5111032;28;19996;-74
2022/05/13 01:55:58;;;;;;;;;;;18.70;99.90;;;;;;5083796;28;19912;-73
2022/05/13 01:58:25;;;;;;;;;;;18.70;99.90;;;;;;5095048;28;20317;-75
2022/05/13 02:00:53;;;;;;;;;;;18.70;99.90;;;;;;5094968;28;19912;-74
2022/05/13 02:06:26;;;;;;;;;;;18.70;99.90;;;;;;5052295;28;19919;-76
2022/05/13 02:08:54;;;;;;;;;;;18.60;99.90;;;;;;5052424;28;20025;-73
2022/05/13 02:11:21;;;;;;;;;;;18.70;99.90;;;;;;5063148;28;20305;-74
2022/05/13 02:13:50;;;;;;;;;;;18.70;99.90;;;;;;5074857;28;19909;-73
2022/05/13 02:16:16;;;;;;;;;;;18.70;99.90;;;;;;5075121;28;19908;-75
2022/05/13 02:18:43;;;;;;;;;;;18.70;99.90;;;;;;5075088;28;19912;-75
2022/05/13 02:21:10;;;;;;;;;;;18.70;99.90;;;;;;5074983;28;20270;-73
2022/05/13 02:23:37;;;;;;;;;;;18.80;99.90;;;;;;5074598;28;20269;-72
2022/05/13 02:26:06;;;;;;;;;;;18.70;99.90;;;;;;5074962;28;19966;-75
2022/05/13 02:28:34;;;;;;;;;;;18.80;99.90;;;;;;5074900;28;19909;-76
2022/05/13 02:31:01;;;;;;;;;;;18.80;99.90;;;;;;5074816;28;20267;-73
2022/05/13 02:33:28;;;;;;;;;;;18.70;99.90;;;;;;5074789;28;19909;-73
2022/05/13 02:35:55;;;;;;;;;;;18.80;99.90;;;;;;5074642;28;20316;-73
2022/05/13 02:38:22;;;;;;;;;;;18.70;99.90;;;;;;5074832;28;19908;-74
2022/05/13 02:43:34;;;;;;;;;;;18.80;99.90;;;;;;5074329;28;19923;-73
2022/05/13 02:46:00;;;;;;;;;;;18.80;99.90;;;;;;5074231;28;19913;-73
2022/05/13 02:48:27;;;;;;;;;;;18.80;99.90;;;;;;5074849;28;19957;-74
2022/05/13 02:50:54;;;;;;;;;;;18.80;99.90;;;;;;5074289;28;20367;-77
2022/05/13 02:53:21;;;;;;;;;;;18.80;99.90;;;;;;5074304;28;20406;-75
2022/05/13 02:55:48;;;;;;;;;;;18.90;99.90;;;;;;5073945;28;19908;-77
2022/05/13 02:58:15;;;;;;;;;;;18.90;99.90;;;;;;5074241;28;19912;-77
2022/05/13 03:00:42;;;;;;;;;;;18.90;99.90;;;;;;5074266;28;20436;-76
2022/05/13 03:03:09;;;;;;;;;;;18.90;99.90;;;;;;5074035;28;19923;-75
2022/05/13 03:05:36;;;;;;;;;;;19.00;99.90;;;;;;5074121;28;19919;-73
2022/05/13 03:08:02;;;;;;;;;;;19.00;99.90;;;;;;5074191;28;20071;-75
2022/05/13 03:10:32;;;;;;;;;;;19.00;99.90;;;;;;5073957;28;19996;-76
2022/05/13 03:12:59;;;;;;;;;;;19.00;99.90;;;;;;5073900;28;19908;-73
2022/05/13 03:15:26;;;;;;;;;;;19.00;99.90;;;;;;5074041;28;19955;-73
2022/05/13 03:17:53;;;;;;;;;;;19.00;99.90;;;;;;5073633;28;19916;-77
2022/05/13 03:20:21;;;;;;;;;;;19.10;99.90;;;;;;5073707;28;19999;-76
2022/05/13 03:22:48;;;;;;;;;;;19.10;99.90;;;;;;5073758;28;20398;-76
2022/05/13 03:25:16;;;;;;;;;;;19.00;99.90;;;;;;5073588;28;20282;-76
2022/05/13 03:27:42;;;;;;;;;;;19.00;99.90;;;;;;5073493;28;20034;-77
2022/05/13 03:30:10;;;;;;;;;;;19.00;99.90;;;;;;5073550;28;19908;-77
2022/05/13 03:32:37;;;;;;;;;;;19.10;99.90;;;;;;5073797;28;19909;-77
2022/05/13 03:35:08;;;;;;;;;;;19.10;99.90;;;;;;5073537;28;19916;-77
2022/05/13 03:37:35;;;;;;;;;;;19.10;99.90;;;;;;5073277;28;20271;-76
2022/05/13 03:40:02;;;;;;;;;;;19.10;99.90;;;;;;5073298;28;20279;-76
2022/05/13 03:42:29;;;;;;;;;;;19.10;99.90;;;;;;5073379;28;19916;-77
2022/05/13 03:44:56;;;;;;;;;;;19.10;99.90;;;;;;5073592;28;20397;-77
2022/05/13 03:47:23;;;;;;;;;;;19.10;99.90;;;;;;5073241;28;19924;-76
2022/05/13 03:49:49;;;;;;;;;;;19.10;99.90;;;;;;5073059;28;19921;-75
2022/05/13 03:52:16;;;;;;;;;;;19.10;99.90;;;;;;5073342;28;19908;-74
2022/05/13 03:54:43;;;;;;;;;;;19.10;99.90;;;;;;5073316;28;19919;-76
2022/05/13 03:57:09;;;;;;;;;;;19.10;99.90;;;;;;5072661;28;20358;-75
2022/05/13 03:59:37;;;;;;;;;;;19.10;99.90;;;;;;5073090;28;19909;-76
2022/05/13 04:02:03;;;;;;;;;;;19.10;99.90;;;;;;5073316;28;19916;-77
2022/05/13 04:08:56;;;;;;;;;;;19.20;99.90;;;;;;5073249;28;19940;-77
2022/05/13 04:10:02;;;;;;;;;;;19.20;99.90;;;;;;5073480;28;19915;-75
2022/05/13 04:17:58;;;;;;;;;;;19.20;99.90;;;;;;5073201;28;20137;-74
2022/05/13 04:20:26;;;;;;;;;;;19.20;99.90;;;;;;5073040;28;19908;-74
2022/05/13 04:22:53;;;;;;;;;;;19.20;99.90;;;;;;5073074;28;19916;-74
2022/05/13 04:25:19;;;;;;;;;;;19.20;99.90;;;;;;5072947;28;19912;-73
2022/05/13 04:27:46;;;;;;;;;;;19.20;99.90;;;;;;5072782;28;19944;-74
2022/05/13 04:30:13;;;;;;;;;;;19.20;99.90;;;;;;5072957;28;20235;-73
2022/05/13 04:32:40;;;;;;;;;;;19.20;99.90;;;;;;5073036;28;19908;-73
2022/05/13 04:35:07;;;;;;;;;;;19.20;99.90;;;;;;5073017;28;20359;-73
2022/05/13 04:37:34;;;;;;;;;;;19.20;99.90;;;;;;5072795;28;20004;-74
2022/05/13 04:40:00;;;;;;;;;;;19.20;99.90;;;;;;5072829;28;19912;-73
2022/05/13 04:45:12;;;;;;;;;;;19.30;99.90;;;;;;5072956;28;19915;-74
2022/05/13 04:50:23;;;;;;;;;;;19.30;99.90;;;;;;5072819;28;19927;-73
2022/05/13 04:52:49;;;;;;;;;;;19.20;99.90;;;;;;5072799;28;19954;-73
2022/05/13 04:55:16;;;;;;;;;;;19.30;99.90;;;;;;5072749;28;19917;-74
2022/05/13 04:57:43;;;;;;;;;;;19.30;99.90;;;;;;5072501;28;20400;-75
2022/05/13 05:00:09;;;;;;;;;;;19.20;99.90;;;;;;5072760;28;19959;-74
2022/05/13 05:02:36;;;;;;;;;;;19.30;99.90;;;;;;5072620;28;19916;-74
2022/05/13 05:05:03;;;;;;;;;;;19.30;99.90;;;;;;5072646;28;19909;-73
2022/05/13 05:07:29;;;;;;;;;;;19.30;99.90;;;;;;5072423;28;19915;-78
2022/05/13 05:09:56;;;;;;;;;;;19.30;99.90;;;;;;5075221;28;19915;-76
2022/05/13 05:12:23;;;;;;;;;;;19.20;99.90;;;;;;5075849;28;19915;-77
2022/05/13 05:14:49;;;;;;;;;;;19.30;99.90;;;;;;5076185;28;19915;-78
2022/05/13 05:17:16;;;;;;;;;;;19.30;99.90;;;;;;5075917;28;19909;-79
2022/05/13 05:19:43;;;;;;;;;;;19.40;99.90;;;;;;5075750;28;19961;-79
2022/05/13 05:22:09;;;;;;;;;;;19.40;99.90;;;;;;5076005;28;20336;-79
2022/05/13 05:24:36;;;;;;;;;;;19.40;99.90;;;;;;5076082;28;19978;-79
2022/05/13 05:27:02;;;;;;;;;;;19.40;99.90;;;;;;5075997;28;19947;-79
2022/05/13 05:29:29;;;;;;;;;;;19.40;99.90;;;;;;5075785;28;19931;-79
2022/05/13 05:31:56;;;;;;;;;;;19.50;99.90;;;;;;5075908;28;19917;-80
2022/05/13 05:34:22;;;;;;;;;;;19.50;99.90;;;;;;5075865;28;19908;-81
2022/05/13 05:36:49;;;;;;;;;;;19.60;99.90;;;;;;5075697;28;20053;-79
2022/05/13 05:39:17;;;;;;;;;;;19.60;99.90;;;;;;5075762;28;20380;-79
2022/05/13 05:41:43;;;;;;;;;;;19.60;99.90;;;;;;5075376;28;20343;-79
2022/05/13 05:44:10;;;;;;;;;;;19.50;99.90;;;;;;5075654;28;19986;-78
2022/05/13 05:46:36;;;;;;;;;;;19.40;99.90;;;;;;5075499;28;19909;-77
2022/05/13 05:49:04;;;;;;;;;;;19.60;99.90;;;;;;5075712;28;19909;-80
2022/05/13 05:51:31;;;;;;;;;;;19.60;99.90;;;;;;5075362;28;19967;-79
2022/05/13 05:59:27;;;;;;;;;;;19.70;99.90;;;;;;5075462;28;19955;-80
2022/05/13 06:01:53;;;;;;;;;;;19.60;99.90;;;;;;5075233;28;20014;-79
2022/05/13 06:04:21;;;;;;;;;;;19.60;99.90;;;;;;5075110;28;19958;-77
2022/05/13 06:06:47;;;;;;;;;;;19.60;99.90;;;;;;5075244;28;19944;-80
2022/05/13 06:09:14;;;;;;;;;;;19.60;99.90;;;;;;5075160;28;19913;-79
2022/05/13 06:11:41;;;;;;;;;;;19.60;99.90;;;;;;5074950;28;19916;-78
2022/05/13 06:14:09;;;;;;;;;;;19.50;99.90;;;;;;5075206;28;19915;-80
2022/05/13 06:16:37;;;;;;;;;;;19.50;99.90;;;;;;5075070;28;19916;-80
2022/05/13 06:19:03;;;;;;;;;;;19.50;99.90;;;;;;5074804;28;19939;-80
2022/05/13 06:21:33;;;;;;;;;;;19.50;99.90;;;;;;5074096;28;19953;-76
2022/05/13 06:24:00;;;;;;;;;;;19.40;99.90;;;;;;5075018;28;19998;-78
2022/05/13 06:26:27;;;;;;;;;;;19.40;99.90;;;;;;5074826;28;19960;-74
2022/05/13 06:28:53;;;;;;;;;;;19.40;99.90;;;;;;5074781;28;19969;-80
2022/05/13 06:31:20;;;;;;;;;;;19.40;99.90;;;;;;5074651;28;19908;-73
2022/05/13 06:33:47;;;;;;;;;;;19.40;99.90;;;;;;5074546;28;19915;-76
2022/05/13 06:36:14;;;;;;;;;;;19.40;99.90;;;;;;5074760;28;19920;-79
2022/05/13 06:38:41;;;;;;;;;;;19.30;99.90;;;;;;5074651;28;19909;-77
2022/05/13 06:41:08;;;;;;;;;;;19.30;99.90;;;;;;5074292;28;19916;-78
2022/05/13 06:43:34;;;;;;;;;;;19.20;99.90;;;;;;5074261;28;20303;-79
2022/05/13 06:46:01;;;;;;;;;;;19.20;99.90;;;;;;5073152;28;19958;-78
2022/05/13 06:48:28;;;;;;;;;;;19.20;99.90;;;;;;5074164;28;20420;-78
2022/05/13 06:50:55;;;;;;;;;;;19.20;99.90;;;;;;5072771;28;19978;-77
2022/05/13 06:53:22;;;;;;;;;;;19.20;99.90;;;;;;5072150;28;19912;-78
2022/05/13 06:55:49;;;;;;;;;;;19.20;99.90;;;;;;5071569;28;19913;-79
2022/05/13 06:58:16;;;;;;;;;;;19.30;99.90;;;;;;5071786;28;19988;-79
2022/05/13 07:00:44;;;;;;;;;;;19.30;99.90;;;;;;5072098;28;19965;-80
2022/05/13 07:03:12;;;;;;;;;;;19.20;99.90;;;;;;5072120;28;19924;-79
2022/05/13 07:05:38;;;;;;;;;;;19.30;99.90;;;;;;5071459;28;20291;-80
2022/05/13 07:08:05;;;;;;;;;;;19.20;99.90;;;;;;5072007;28;19916;-79
2022/05/13 07:10:32;;;;;;;;;;;19.20;99.90;;;;;;5071859;28;19912;-80
2022/05/13 07:12:59;;;;;;;;;;;19.20;99.90;;;;;;5071923;28;19909;-79
2022/05/13 07:15:26;;;;;;;;;;;19.20;99.90;;;;;;5071924;28;19912;-80
2022/05/13 07:17:52;;;;;;;;;;;19.10;99.90;;;;;;5069857;28;19969;-78
2022/05/13 07:20:19;;;;;;;;;;;19.20;99.90;;;;;;5071543;28;19912;-80
2022/05/13 07:22:46;;;;;;;;;;;19.10;99.90;;;;;;5071429;28;20026;-81
2022/05/13 07:25:12;;;;;;;;;;;19.10;99.90;;;;;;5071558;28;19986;-80
2022/05/13 07:27:39;;;;;;;;;;;19.10;99.90;;;;;;5071524;28;19947;-80
2022/05/13 07:30:06;;;;;;;;;;;19.10;99.90;;;;;;5071185;28;19917;-80
2022/05/13 07:32:33;;;;;;;;;;;19.10;99.90;;;;;;5070701;28;20283;-79
2022/05/13 07:34:59;;;;;;;;;;;19.10;99.90;;;;;;5071470;28;19915;-80
2022/05/13 07:37:26;;;;;;;;;;;19.10;99.90;;;;;;5071434;28;19909;-77
2022/05/13 07:42:37;;;;;;;;;;;19.10;99.90;;;;;;5071337;28;19927;-78
2022/05/13 07:45:04;;;;;;;;;;;19.20;99.90;;;;;;5070973;28;19913;-77
2022/05/13 07:47:33;;;;;;;;;;;19.20;99.90;;;;;;5071160;28;20268;-74
2022/05/13 07:50:00;;;;;;;;;;;19.20;99.90;;;;;;5071026;28;20268;-75
2022/05/13 07:52:26;;;;;;;;;;;19.20;99.90;;;;;;5071322;28;19908;-77
2022/05/13 07:54:53;;;;;;;;;;;19.20;99.90;;;;;;5071181;28;19931;-77
2022/05/13 07:57:20;;;;;;;;;;;19.30;99.90;;;;;;5071045;28;19991;-75
2022/05/13 08:02:31;;;;;;;;;;;19.20;99.90;;;;;;5071378;28;19923;-75
2022/05/13 08:04:58;;;;;;;;;;;19.20;99.90;;;;;;5071198;28;19908;-75
2022/05/13 08:07:24;;;;;;;;;;;19.30;99.90;;;;;;5071152;28;19986;-76
2022/05/13 08:09:51;;;;;;;;;;;19.20;99.90;;;;;;5070515;28;19909;-76
2022/05/13 08:12:18;;;;;;;;;;;19.20;99.90;;;;;;5071231;28;19909;-76
2022/05/13 08:14:44;;;;;;;;;;;19.20;99.90;;;;;;5071268;28;20453;-75
2022/05/13 08:17:11;;;;;;;;;;;19.10;99.90;;;;;;5071178;28;19919;-74
2022/05/13 08:19:38;;;;;;;;;;;19.20;99.90;;;;;;5070854;28;19912;-76
2022/05/13 08:22:05;;;;;;;;;;;19.20;99.90;;;;;;5070774;28;19963;-78
2022/05/13 08:24:31;;;;;;;;;;;19.10;99.90;;;;;;5070714;28;19917;-78
2022/05/13 08:26:58;;;;;;;;;;;19.10;99.90;;;;;;5071016;28;19912;-79
2022/05/13 08:29:25;;;;;;;;;;;19.10;99.90;;;;;;5070943;28;20255;-80
2022/05/13 08:31:51;;;;;;;;;;;19.00;99.90;;;;;;5070743;28;19909;-75
2022/05/13 08:34:18;;;;;;;;;;;19.00;99.90;;;;;;5070922;28;20589;-78
2022/05/13 08:36:45;;;;;;;;;;;19.00;99.90;;;;;;5070301;28;19909;-75
2022/05/13 08:39:11;;;;;;;;;;;18.90;99.90;;;;;;5070368;28;19921;-75
2022/05/13 08:41:50;;;;;;;;;;;19.00;99.90;;;;;;5068815;28;19912;-77
2022/05/13 08:44:18;;;;;;;;;;;18.90;99.90;;;;;;5073156;28;19916;-77
2022/05/13 08:47:02;;;;;;;;;;;18.90;99.90;;;;;;5074850;28;19920;-76
2022/05/13 08:49:44;;;;;;;;;;;18.90;99.90;;;;;;5074342;28;19940;-76
2022/05/13 08:55:36;;;;;;;;;;;18.90;99.90;;;;;;5051693;28;19915;-75
2022/05/13 08:58:05;;;;;;;;;;;18.80;99.90;;;;;;5073437;28;19912;-75
2022/05/13 09:00:32;;;;;;;;;;;18.80;99.90;;;;;;5074509;28;19962;-75
2022/05/13 09:03:16;;;;;;;;;;;18.70;99.90;;;;;;5073794;28;19940;-75
2022/05/13 09:05:56;;;;;;;;;;;18.60;99.90;;;;;;5075070;28;19909;-76
2022/05/13 09:08:23;;;;;;;;;;;18.60;99.90;;;;;;5076280;28;19955;-76
2022/05/13 09:11:03;;;;;;;;;;;18.60;99.90;;;;;;5076330;28;19909;-75
2022/05/13 09:13:45;;;;;;;;;;;18.60;99.90;;;;;;5076307;28;19913;-75
2022/05/13 09:16:12;;;;;;;;;;;18.50;99.90;;;;;;5076236;28;19940;-76
2022/05/13 09:18:47;;;;;;;;;;;18.50;99.90;;;;;;5076262;28;19970;-74
2022/05/13 09:21:16;;;;;;;;;;;18.50;99.90;;;;;;5076281;28;19978;-75
2022/05/13 09:23:43;;;;;;;;;;;18.50;99.90;;;;;;5075717;28;19995;-76
2022/05/13 09:26:10;;;;;;;;;;;18.50;99.90;;;;;;5076174;28;20252;-74
2022/05/13 09:28:56;;;;;;;;;;;18.40;99.90;;;;;;5076081;28;19908;-76
2022/05/13 09:31:23;;;;;;;;;;;18.50;99.90;;;;;;5075978;28;19995;-76
2022/05/13 09:33:49;;;;;;;;;;;18.50;99.90;;;;;;5075773;28;19955;-79
2022/05/13 09:36:21;;;;;;;;;;;18.50;99.90;;;;;;5075855;28;19912;-76
2022/05/13 09:38:50;;;;;;;;;;;18.40;99.90;;;;;;5075670;28;19909;-76
2022/05/13 09:41:33;;;;;;;;;;;18.50;99.90;;;;;;5073270;28;19912;-75
2022/05/13 09:44:10;;;;;;;;;;;18.50;99.90;;;;;;5073576;28;19978;-78
2022/05/13 09:46:39;;;;;;;;;;;18.50;99.90;;;;;;5073687;28;20003;-78
2022/05/13 09:49:09;;;;;;;;;;;18.40;99.90;;;;;;5073796;28;20003;-76
2022/05/13 09:51:56;;;;;;;;;;;18.50;99.90;;;;;;5053423;28;20023;-75
2022/05/13 09:54:25;;;;;;;;;;;18.40;99.90;;;;;;5052016;28;19909;-75
2022/05/13 09:57:07;;;;;;;;;;;18.50;99.90;;;;;;5052293;28;21411;-77
2022/05/13 09:59:36;;;;;;;;;;;18.50;99.90;;;;;;5053350;28;19944;-76
2022/05/13 10:02:23;;;;;;;;;;;18.50;99.90;;;;;;5053204;28;19917;-76
2022/05/13 10:04:51;;;;;;;;;;;18.50;99.90;;;;;;5053181;28;19909;-78
2022/05/13 10:07:18;;;;;;;;;;;18.50;99.90;;;;;;5052661;28;19913;-76
2022/05/13 10:15:25;;;;;;;;;;;18.70;99.90;;;;;;5053491;28;19920;-74
2022/05/13 10:17:57;;;;;;;;;;;18.70;99.90;;;;;;5052859;28;19955;-76
2022/05/13 10:20:43;;;;;;;;;;;18.80;99.90;;;;;;5052794;28;20026;-77
2022/05/13 10:23:10;;;;;;;;;;;18.80;99.90;;;;;;5052705;28;19981;-76
2022/05/13 10:25:52;;;;;;;;;;;18.80;99.90;;;;;;5052816;28;20041;-75
2022/05/13 10:28:19;;;;;;;;;;;18.80;99.90;;;;;;5052766;28;19963;-76
2022/05/13 10:30:52;;;;;;;;;;;18.90;99.90;;;;;;5052595;28;19909;-75
2022/05/13 10:33:30;;;;;;;;;;;18.90;99.90;;;;;;5052318;28;19920;-75
2022/05/13 10:36:08;;;;;;;;;;;18.90;99.90;;;;;;5052764;28;20567;-77
2022/05/13 10:38:55;;;;;;;;;;;18.90;99.90;;;;;;5052468;28;19913;-75
2022/05/13 10:41:37;;;;;;;;;;;18.90;99.90;;;;;;5052757;28;19928;-75
2022/05/13 10:44:21;;;;;;;;;;;19.00;99.90;;;;;;5052632;28;19946;-75
2022/05/13 10:46:58;;;;;;;;;;;18.90;99.90;;;;;;5052217;28;19909;-76
2022/05/13 10:49:32;;;;;;;;;;;19.00;99.90;;;;;;5054756;28;19909;-76
2022/05/13 10:51:59;;;;;;;;;;;19.00;99.90;;;;;;5072416;28;19921;-76
2022/05/13 10:54:33;;;;;;;;;;;19.00;99.90;;;;;;5072315;28;19963;-76
2022/05/13 10:56:59;;;;;;;;;;;19.00;99.90;;;;;;5072268;28;19909;-75
2022/05/13 10:59:38;;;;;;;;;;;19.00;99.90;;;;;;5071966;28;19913;-79
2022/05/13 11:02:23;;;;;;;;;;;19.00;99.90;;;;;;5071463;28;19999;-79
2022/05/13 11:05:08;;;;;;;;;;;19.00;99.90;;;;;;5072114;28;20390;-77
2022/05/13 11:07:41;;;;;;;;;;;19.00;99.90;;;;;;5071678;28;20359;-79
2022/05/13 11:10:08;;;;;;;;;;;18.90;99.90;;;;;;5071907;28;19912;-76
2022/05/13 11:12:42;;;;;;;;;;;18.90;99.90;;;;;;5071593;28;19999;-75
2022/05/13 11:15:21;;;;;;;;;;;19.00;99.90;;;;;;5071939;28;20376;-77
2022/05/13 11:18:12;;;;;;;;;;;19.00;99.90;;;;;;5071230;28;20003;-75
2022/05/13 11:20:45;;;;;;;;;;;19.00;99.90;;;;;;5071704;28;19909;-79
2022/05/13 11:23:15;;;;;;;;;;;19.00;99.90;;;;;;5071650;28;19923;-75
2022/05/13 11:26:08;;;;;;;;;;;19.00;99.90;;;;;;5071207;28;19919;-79
2022/05/13 11:28:35;;;;;;;;;;;19.00;99.90;;;;;;5071768;28;19962;-78
2022/05/13 11:31:02;;;;;;;;;;;19.00;99.90;;;;;;5071278;28;19912;-79
2022/05/13 11:33:53;;;;;;;;;;;19.00;99.90;;;;;;5071683;28;20341;-78
2022/05/13 11:36:29;;;;;;;;;;;19.00;99.90;;;;;;5071389;28;20022;-79
2022/05/13 11:38:55;;;;;;;;;;;19.00;99.90;;;;;;5070983;28;19963;-80
2022/05/13 11:41:23;;;;;;;;;;;19.00;99.90;;;;;;5071505;28;19920;-80
2022/05/13 11:43:55;;;;;;;;;;;19.00;99.90;;;;;;5071210;28;20111;-81
2022/05/13 11:46:28;;;;;;;;;;;19.00;99.90;;;;;;5070963;28;19909;-80
2022/05/13 11:49:06;;;;;;;;;;;19.00;99.90;;;;;;5071386;28;19935;-78
2022/05/13 11:51:35;;;;;;;;;;;19.00;99.90;;;;;;5070580;28;20270;-80
2022/05/13 11:54:01;;;;;;;;;;;19.00;99.90;;;;;;5071229;28;19966;-79
2022/05/13 11:56:31;;;;;;;;;;;19.00;99.90;;;;;;5071424;28;19915;-80
2022/05/13 11:59:01;;;;;;;;;;;19.00;99.90;;;;;;5104164;28;19915;-78
2022/05/13 12:01:37;;;;;;;;;;;19.00;99.90;;;;;;5070868;28;19908;-81
2022/05/13 12:04:12;;;;;;;;;;;19.00;99.90;;;;;;5070736;28;20302;-81
2022/05/13 12:06:51;;;;;;;;;;;19.00;99.90;;;;;;5071272;28;19908;-81
2022/05/13 12:09:23;;;;;;;;;;;19.00;99.90;;;;;;5103517;28;20271;-79
2022/05/13 12:11:56;;;;;;;;;;;18.90;99.90;;;;;;5070918;28;19912;-80
2022/05/13 12:14:30;;;;;;;;;;;19.00;99.90;;;;;;5071157;28;19913;-81
2022/05/13 12:17:12;;;;;;;;;;;18.90;99.90;;;;;;5070457;28;19933;-81
2022/05/13 12:19:44;;;;;;;;;;;18.90;99.90;;;;;;5070457;28;19909;-81
2022/05/13 12:22:11;;;;;;;;;;;18.90;99.90;;;;;;5070981;28;20286;-79
2022/05/13 12:24:56;;;;;;;;;;;18.90;99.90;;;;;;5071185;28;20202;-80
2022/05/13 12:27:31;;;;;;;;;;;18.90;99.90;;;;;;5071111;28;20286;-79
2022/05/13 12:29:58;;;;;;;;;;;18.90;99.90;;;;;;5070717;28;19912;-80
2022/05/13 12:32:36;;;;;;;;;;;18.90;99.90;;;;;;5072087;28;19909;-80
2022/05/13 12:38:12;;;;;;;;;;;19.00;99.90;;;;;;5011133;28;20292;-81
2022/05/13 12:40:59;;;;;;;;;;;18.90;99.90;;;;;;5061071;28;19908;-81
2022/05/13 12:43:46;;;;;;;;;;;18.90;99.90;;;;;;5073070;28;19928;-81
2022/05/13 12:46:13;;;;;;;;;;;18.90;99.90;;;;;;5072596;28;19916;-81
2022/05/13 12:48:54;;;;;;;;;;;18.90;99.90;;;;;;5073076;28;20324;-80
2022/05/13 12:51:21;;;;;;;;;;;18.80;99.90;;;;;;5072889;28;19927;-80
2022/05/13 12:53:49;;;;;;;;;;;18.80;99.90;;;;;;5072681;28;20419;-81
2022/05/13 12:56:36;;;;;;;;;;;18.90;99.90;;;;;;5073158;28;20267;-81
2022/05/13 12:59:38;;;;;;;;;;;18.80;99.90;;;;;;5072540;28;19916;-81
2022/05/13 13:02:06;;;;;;;;;;;18.90;99.90;;;;;;5049991;28;19913;-81
2022/05/13 13:04:35;;;;;;;;;;;18.80;99.90;;;;;;5068358;28;19913;-82
2022/05/13 13:07:07;;;;;;;;;;;18.80;99.90;;;;;;5072684;28;19914;-79
2022/05/13 13:09:40;;;;;;;;;;;18.80;99.90;;;;;;5072596;28;20326;-78
2022/05/13 13:12:24;;;;;;;;;;;18.80;99.90;;;;;;5072684;28;19937;-79
2022/05/13 13:14:55;;;;;;;;;;;18.80;99.90;;;;;;5072181;28;19962;-80
2022/05/13 13:17:28;;;;;;;;;;;18.90;99.90;;;;;;5072616;28;20386;-77
2022/05/13 13:19:59;;;;;;;;;;;18.80;99.90;;;;;;5072728;28;19909;-75
2022/05/13 13:22:28;;;;;;;;;;;18.90;99.90;;;;;;5072594;28;20011;-76
2022/05/13 13:24:55;;;;;;;;;;;18.80;99.90;;;;;;5072713;28;19909;-80
2022/05/13 13:27:23;;;;;;;;;;;18.90;99.90;;;;;;5072504;28;20275;-82
2022/05/13 13:29:50;;;;;;;;;;;18.90;99.90;;;;;;5072122;28;19913;-79
2022/05/13 13:32:18;;;;;;;;;;;18.80;99.90;;;;;;5076111;28;19917;-81
2022/05/13 13:34:57;;;;;;;;;;;18.90;99.90;;;;;;5076165;28;19987;-81
2022/05/13 13:37:29;;;;;;;;;;;18.80;99.90;;;;;;5075941;28;19909;-80
2022/05/13 13:40:08;;;;;;;;;;;18.80;99.90;;;;;;5076101;28;20378;-82
2022/05/13 13:42:35;;;;;;;;;;;18.80;99.90;;;;;;5075982;28;19912;-81
2022/05/13 13:45:07;;;;;;;;;;;18.80;99.90;;;;;;5075300;28;19908;-80
2022/05/13 13:47:39;;;;;;;;;;;18.80;99.90;;;;;;5075568;28;19909;-80
2022/05/13 13:50:07;;;;;;;;;;;18.80;99.90;;;;;;5075643;28;20329;-80
2022/05/13 13:52:35;;;;;;;;;;;18.80;99.90;;;;;;5075583;28;20479;-81
2022/05/13 13:55:14;;;;;;;;;;;18.80;99.90;;;;;;5075838;28;20382;-81
2022/05/13 13:57:41;;;;;;;;;;;18.80;99.90;;;;;;5075480;28;20166;-75
2022/05/13 14:00:09;;;;;;;;;;;18.80;99.90;;;;;;5075150;28;19944;-77
2022/05/13 14:02:36;;;;;;;;;;;18.80;99.90;;;;;;5075482;28;19916;-77
2022/05/13 14:05:06;;;;;;;;;;;18.80;99.90;;;;;;5075407;28;20385;-81
2022/05/13 14:07:33;;;;;;;;;;;18.80;99.90;;;;;;5075108;28;19909;-77
2022/05/13 14:09:59;;;;;;;;;;;18.80;99.90;;;;;;5075382;28;19951;-81
2022/05/13 14:12:27;;;;;;;;;;;18.70;99.90;;;;;;5075435;28;20359;-82
2022/05/13 14:14:56;;;;;;;;;;;18.80;99.90;;;;;;5074828;28;19969;-82
2022/05/13 14:17:28;;;;;;;;;;;18.80;99.90;;;;;;5074941;28;19995;-77
2022/05/13 14:20:10;;;;;;;;;;;18.80;99.90;;;;;;5074910;28;19962;-77
2022/05/13 14:22:55;;;;;;;;;;;18.80;99.90;;;;;;5075069;28;20011;-81
2022/05/13 14:25:22;;;;;;;;;;;18.80;99.90;;;;;;5075176;28;19908;-79
2022/05/13 14:27:53;;;;;;;;;;;18.80;99.90;;;;;;5075006;28;20401;-80
2022/05/13 14:30:20;;;;;;;;;;;18.70;99.90;;;;;;5075197;28;19909;-79
2022/05/13 14:32:47;;;;;;;;;;;18.70;99.90;;;;;;5074927;28;20366;-78
2022/05/13 14:35:19;;;;;;;;;;;18.70;99.90;;;;;;5075017;28;20256;-81
2022/05/13 14:37:50;;;;;;;;;;;18.70;99.90;;;;;;5074441;28;20283;-80
2022/05/13 14:40:19;;;;;;;;;;;18.70;99.90;;;;;;5074792;28;20050;-80
2022/05/13 14:42:49;;;;;;;;;;;18.70;99.90;;;;;;5074262;28;19916;-76
2022/05/13 14:45:15;;;;;;;;;;;18.60;99.90;;;;;;5074601;28;20394;-76
2022/05/13 14:47:42;;;;;;;;;;;18.70;99.90;;;;;;5074582;28;19995;-79
2022/05/13 14:50:08;;;;;;;;;;;18.70;99.90;;;;;;5074508;28;19921;-76
2022/05/13 14:52:40;;;;;;;;;;;18.70;99.90;;;;;;5074542;28;19909;-76
2022/05/13 14:55:14;;;;;;;;;;;18.70;99.90;;;;;;5106985;28;20075;-78
2022/05/13 14:57:44;;;;;;;;;;;18.70;99.90;;;;;;5074324;28;19909;-76
2022/05/13 15:00:20;;;;;;;;;;;18.70;99.90;;;;;;5074522;28;19954;-77
2022/05/13 15:03:06;;;;;;;;;;;18.70;99.90;;;;;;5074311;28;19916;-81
2022/05/13 15:05:40;;;;;;;;;;;18.70;99.90;;;;;;5074154;28;19935;-79
2022/05/13 15:08:26;;;;;;;;;;;18.60;99.90;;;;;;5074076;28;20040;-79
2022/05/13 15:10:53;;;;;;;;;;;18.70;99.90;;;;;;5074255;28;20374;-81
2022/05/13 15:13:22;;;;;;;;;;;18.70;99.90;;;;;;5074133;28;20266;-80